Home > Products > Valid Products > TAF

000
FTUS44 KOHX 032329
TAFCKV
TAF
KCKV 032329Z 0400/0424 VRB04KT P6SM FEW050
      TEMPO 0409/0413 00000KT 3SM BR=



000
FTUS44 KOHX 032329
TAFBNA
TAF
KBNA 032329Z 0400/0424 VRB03KT P6SM SCT050
      TEMPO 0409/0413 3SM BR=



000
FTUS44 KOHX 032329
TAFCSV
TAF
KCSV 032329Z 0400/0424 VRB03KT P6SM SCT040
      TEMPO 0409/0413 00000KT 3SM BR=



000
FTUS44 KOHX 031720
TAFCKV
TAF
KCKV 031720Z 0318/0418 VRB04KT P6SM FEW050
      TEMPO 0409/0413 00000KT 4SM BR=



000
FTUS44 KOHX 031720
TAFCSV
TAF
KCSV 031720Z 0318/0418 VRB03KT P6SM FEW040=



000
FTUS44 KOHX 031720
TAFBNA
TAF
KBNA 031720Z 0318/0418 VRB03KT P6SM SCT050=



000
FTUS44 KOHX 031120
TAFCKV
TAF
KCKV 031120Z 0312/0412 00000KT P6SM BKN250
     FM031600 VRB05KT P6SM BKN250=



000
FTUS44 KOHX 031120
TAFCSV
TAF
KCSV 031120Z 0312/0412 00000KT P6SM SCT200
     FM031700 36003KT P6SM BKN080 BKN200
     FM040000 00000KT P6SM BKN200=



000
FTUS44 KOHX 031120
TAFCSV
TAF
KCSV 031120Z 0312/0412 00000KT P6SM SCT200
     FM031700 36003KT P6SM BKN080 BKN200
     FM040000 00000KT P6SM BKN200=



000
FTUS44 KOHX 031120
TAFBNA
TAF
KBNA 031120Z 0312/0412 00000KT P6SM BKN250
     FM031600 VRB05KT P6SM BKN250=



000
FTUS44 KOHX 031120
TAFCKV
TAF
KCKV 031120Z 0312/0412 00000KT P6SM BKN250
     FM031600 VRB05KT P6SM BKN250=



000
FTUS44 KOHX 031120
TAFBNA
TAF
KBNA 031120Z 0312/0412 00000KT P6SM BKN250
     FM031600 VRB05KT P6SM BKN250=



000
FTUS44 KOHX 031000 AAA
TAFCKV
TAF AMD
KCKV 031000Z 0310/0406 00000KT P6SM BKN250
      TEMPO 0311/0312 5SM BR
     FM031400 02005KT P6SM BKN250=



000
FTUS44 KOHX 031000 AAA
TAFCKV
TAF AMD
KCKV 031000Z 0310/0406 00000KT P6SM BKN250
      TEMPO 0311/0312 5SM BR
     FM031400 02005KT P6SM BKN250=



000
FTUS44 KOHX 030954 AAA
TAFCSV
TAF AMD
KCSV 030954Z 0310/0406 00000KT P6SM SCT200
      TEMPO 0311/0312 5SM BR
     FM031700 36003KT P6SM BKN080 BKN200
     FM040000 00000KT P6SM BKN200=



000
FTUS44 KOHX 030526
TAFBNA
TAF
KBNA 030526Z 0306/0406 04003KT P6SM BKN250=



000
FTUS44 KOHX 030526
TAFCKV
TAF
KCKV 030526Z 0306/0406 00000KT P6SM BKN250
     FM031000 00000KT 4SM BR BKN250
     FM031400 02005KT P6SM BKN250=



000
FTUS44 KOHX 030526
TAFCSV
TAF
KCSV 030526Z 0306/0406 00000KT P6SM BKN200
     FM030800 00000KT 4SM BR BKN200
     FM031400 36003KT P6SM BKN080 BKN200
     FM040200 00000KT P6SM BKN200=



000
FTUS44 KOHX 030431 AAA
TAFCSV
TAF AMD
KCSV 030431Z 0305/0324 33004KT P6SM BKN200
     FM030800 00000KT 4SM BR BKN080 BKN200
      TEMPO 0309/0313 2SM BR SCT080 SCT200
     FM031400 36003KT P6SM BKN080 BKN200=



000
FTUS44 KOHX 022320
TAFBNA
TAF
KBNA 022320Z 0300/0324 11005KT P6SM BKN100 BKN250=



000
FTUS44 KOHX 022320
TAFCKV
TAF
KCKV 022320Z 0300/0324 02005KT P6SM BKN250
     FM031000 00000KT 5SM BR BKN250
      TEMPO 0310/0313 2SM BR
     FM031400 02005KT P6SM BKN250=



000
FTUS44 KOHX 022320
TAFBNA
TAF
KBNA 022320Z 0300/0324 11005KT P6SM BKN100 BKN250=



000
FTUS44 KOHX 022320
TAFCKV
TAF
KCKV 022320Z 0300/0324 02005KT P6SM BKN250
     FM031000 00000KT 5SM BR BKN250
      TEMPO 0310/0313 2SM BR
     FM031400 02005KT P6SM BKN250=



000
FTUS44 KOHX 022320
TAFCSV
TAF
KCSV 022320Z 0300/0324 33004KT P6SM BKN040 BKN080 BKN200
     FM030400 00000KT 4SM BR BKN080 BKN200
      TEMPO 0309/0313 2SM BR SCT080 SCT200
     FM031400 36003KT P6SM BKN080 BKN200=



000
FTUS44 KOHX 022320
TAFCSV
TAF
KCSV 022320Z 0300/0324 33004KT P6SM BKN040 BKN080 BKN200
     FM030400 00000KT 4SM BR BKN080 BKN200
      TEMPO 0309/0313 2SM BR SCT080 SCT200
     FM031400 36003KT P6SM BKN080 BKN200=



000
FTUS44 KOHX 021731
TAFCSV
TAF
KCSV 021731Z 0218/0318 VRB03KT P6SM SCT050 BKN250
     FM030400 00000KT 5SM BR BKN250
      TEMPO 0309/0313 3SM BR
     FM031400 VRB03KT P6SM SCT250=



000
FTUS44 KOHX 021731
TAFBNA
TAF
KBNA 021731Z 0218/0318 02004KT P6SM SCT050 BKN250
     FM030300 02003KT P6SM SCT250=



000
FTUS44 KOHX 021731
TAFCKV
TAF
KCKV 021731Z 0218/0318 11005KT P6SM SCT050 SCT250
     FM030200 00000KT P6SM BKN250
     FM031000 00000KT 5SM BR BKN250
      TEMPO 0310/0313 3SM BR
     FM031400 VRB03KT P6SM SCT250=



000
FTUS44 KOHX 021731
TAFCKV
TAF
KCKV 021731Z 0218/0318 11005KT P6SM SCT050 SCT250
     FM030200 00000KT P6SM BKN250
     FM031000 00000KT 5SM BR BKN250
      TEMPO 0310/0313 3SM BR
     FM031400 VRB03KT P6SM SCT250=



000
FTUS44 KOHX 021731
TAFBNA
TAF
KBNA 021731Z 0218/0318 02004KT P6SM SCT050 BKN250
     FM030300 02003KT P6SM SCT250=



000
FTUS44 KOHX 021731
TAFCSV
TAF
KCSV 021731Z 0218/0318 VRB03KT P6SM SCT050 BKN250
     FM030400 00000KT 5SM BR BKN250
      TEMPO 0309/0313 3SM BR
     FM031400 VRB03KT P6SM SCT250=



000
FTUS44 KOHX 021125
TAFCSV
TAF
KCSV 021125Z 0212/0312 00000KT 3SM BR BKN200
      TEMPO 0212/0213 1SM BR
     FM021400 02003KT P6SM SKC
     FM021600 36004KT P6SM SCT070 BKN250=



000
FTUS44 KOHX 021125
TAFBNA
TAF
KBNA 021125Z 0212/0312 00000KT P6SM BKN250
     FM021600 VRB06KT P6SM SCT050 BKN250
     FM030300 01003KT P6SM BKN250=



000
FTUS44 KOHX 021125
TAFBNA
TAF
KBNA 021125Z 0212/0312 00000KT P6SM BKN250
     FM021600 VRB06KT P6SM SCT050 BKN250
     FM030300 01003KT P6SM BKN250=



000
FTUS44 KOHX 021125
TAFCKV
TAF
KCKV 021125Z 0212/0312 00000KT 4SM BR BKN250
      TEMPO 0212/0213 2SM BR
     FM021400 VRB04KT P6SM SCT060 BKN250
     FM030200 00000KT P6SM BKN250=



000
FTUS44 KOHX 021125
TAFCKV
TAF
KCKV 021125Z 0212/0312 00000KT 4SM BR BKN250
      TEMPO 0212/0213 2SM BR
     FM021400 VRB04KT P6SM SCT060 BKN250
     FM030200 00000KT P6SM BKN250=



000
FTUS44 KOHX 021125
TAFCSV
TAF
KCSV 021125Z 0212/0312 00000KT 3SM BR BKN200
      TEMPO 0212/0213 1SM BR
     FM021400 02003KT P6SM SKC
     FM021600 36004KT P6SM SCT070 BKN250=



000
FTUS44 KOHX 020530
TAFBNA
TAF
KBNA 020530Z 0206/0306 00000KT P6SM BKN250
     FM021600 07003KT P6SM SCT050 BKN250=



000
FTUS44 KOHX 020530
TAFCKV
TAF
KCKV 020530Z 0206/0306 00000KT P6SM BKN250
     FM020800 00000KT 4SM BR BKN250
      TEMPO 0209/0213 2SM BR SCT250
     FM021400 10003KT P6SM BKN250
     FM021600 07003KT P6SM SCT060 BKN250
     FM030200 00000KT P6SM BKN250=



000
FTUS44 KOHX 020530
TAFCSV
TAF
KCSV 020530Z 0206/0306 00000KT 6SM BR BKN200
      TEMPO 0206/0209 4SM BR
     FM020900 00000KT 3SM BR BKN200
     FM021400 05003KT P6SM SKC
     FM021600 36004KT P6SM SCT070 BKN250=



000
FTUS44 KOHX 020530
TAFBNA
TAF
KBNA 020530Z 0206/0306 00000KT P6SM BKN250
     FM021600 07003KT P6SM SCT050 BKN250=



000
FTUS44 KOHX 020530
TAFCKV
TAF
KCKV 020530Z 0206/0306 00000KT P6SM BKN250
     FM020800 00000KT 4SM BR BKN250
      TEMPO 0209/0213 2SM BR SCT250
     FM021400 10003KT P6SM BKN250
     FM021600 07003KT P6SM SCT060 BKN250
     FM030200 00000KT P6SM BKN250=



000
FTUS44 KOHX 020530
TAFCSV
TAF
KCSV 020530Z 0206/0306 00000KT 6SM BR BKN200
      TEMPO 0206/0209 4SM BR
     FM020900 00000KT 3SM BR BKN200
     FM021400 05003KT P6SM SKC
     FM021600 36004KT P6SM SCT070 BKN250=



000
FTUS44 KOHX 012355 AAA
TAFCSV
TAF AMD
KCSV 012355Z 0200/0224 00000KT P6SM BKN110 BKN200
     FM020400 00000KT 5SM BR BKN200
     FM020800 00000KT 3SM BR BKN200
     FM021400 05003KT P6SM SKC
     FM021600 36004KT P6SM SCT070 BKN250=



000
FTUS44 KOHX 012339
TAFCSV
TAF
KCSV 012339Z 0200/0224 00000KT P6SM BKN110 BKN200
     FM020400 00000KT 5SM BR BKN200
     FM020800 00000KT 3SM BR BKN200
     FM021600 36004KT P6SM SCT070 BKN250=



000
FTUS44 KOHX 012339
TAFBNA
TAF
KBNA 012339Z 0200/0224 08003KT P6SM BKN250
     FM021600 07003KT P6SM SCT050 BKN250=



000
FTUS44 KOHX 012339
TAFCKV
TAF
KCKV 012339Z 0200/0224 26006KT P6SM BKN250
     FM020600 00000KT 4SM BR BKN250
     FM020900 00000KT 2SM BR SCT250
     FM021400 10003KT P6SM BKN250
     FM021600 07003KT P6SM SCT060 BKN250=



000
FTUS44 KOHX 011723
TAFCKV
TAF
KCKV 011723Z 0118/0218 08004KT P6SM FEW045 SCT060 BKN250
     FM020800 00000KT 2SM BR BKN250
     FM021300 12003KT P6SM FEW045 SCT060 BKN250=



000
FTUS44 KOHX 011723
TAFBNA
TAF
KBNA 011723Z 0118/0218 07003KT P6SM FEW045 SCT060 BKN250
      TEMPO 0209/0213 3SM BR
     FM021300 06003KT P6SM SCT070 BKN250=



000
FTUS44 KOHX 011723
TAFCSV
TAF
KCSV 011723Z 0118/0218 00000KT P6SM SCT060 BKN250
     FM020800 00000KT 2SM HZ BR SCT060 BKN250
     FM021400 VRB03KT P6SM SCT060 BKN250=



000
FTUS44 KOHX 011723
TAFCSV
TAF
KCSV 011723Z 0118/0218 00000KT P6SM SCT060 BKN250
     FM020800 00000KT 2SM HZ BR SCT060 BKN250
     FM021400 VRB03KT P6SM SCT060 BKN250=



000
FTUS44 KOHX 011723
TAFCKV
TAF
KCKV 011723Z 0118/0218 08004KT P6SM FEW045 SCT060 BKN250
     FM020800 00000KT 2SM BR BKN250
     FM021300 12003KT P6SM FEW045 SCT060 BKN250=



000
FTUS44 KOHX 011723
TAFBNA
TAF
KBNA 011723Z 0118/0218 07003KT P6SM FEW045 SCT060 BKN250
      TEMPO 0209/0213 3SM BR
     FM021300 06003KT P6SM SCT070 BKN250=



000
FTUS44 KOHX 011359 AAA
TAFCSV
TAF AMD
KCSV 011359Z 0114/0212 VRB02KT P6SM BKN070
     FM011800 03005KT P6SM SCT060 SCT250
     FM020200 00000KT P6SM FEW060=



000
FTUS44 KOHX 011359 AAA
TAFCKV
TAF AMD
KCKV 011359Z 0114/0212 09003KT P6SM SKC
     FM011800 14003KT P6SM SCT060 SCT250
     FM020000 05003KT P6SM FEW060=



000
FTUS44 KOHX 011120
TAFBNA
TAF
KBNA 011120Z 0112/0212 VRB04KT P6SM FEW250
     FM011800 07006KT P6SM SCT060 SCT250
     FM020000 04003KT P6SM FEW060=



000
FTUS44 KOHX 011120
TAFCKV
TAF
KCKV 011120Z 0112/0212 00000KT 3SM BR FEW250
      TEMPO 0112/0113 1/4SM FG
     FM011400 12003KT P6SM SCT250
     FM011800 14003KT P6SM SCT060 SCT250
     FM020000 05003KT P6SM FEW060=



000
FTUS44 KOHX 011120
TAFCSV
TAF
KCSV 011120Z 0112/0212 00000KT 5SM BR SKC
     FM011400 VRB03KT P6SM SCT250
     FM011800 03005KT P6SM SCT060 SCT250
     FM020200 00000KT P6SM FEW060=



000
FTUS44 KOHX 011120
TAFCSV
TAF
KCSV 011120Z 0112/0212 00000KT 5SM BR SKC
     FM011400 VRB03KT P6SM SCT250
     FM011800 03005KT P6SM SCT060 SCT250
     FM020200 00000KT P6SM FEW060=



000
FTUS44 KOHX 011120
TAFCKV
TAF
KCKV 011120Z 0112/0212 00000KT 3SM BR FEW250
      TEMPO 0112/0113 1/4SM FG
     FM011400 12003KT P6SM SCT250
     FM011800 14003KT P6SM SCT060 SCT250
     FM020000 05003KT P6SM FEW060=



000
FTUS44 KOHX 011120
TAFBNA
TAF
KBNA 011120Z 0112/0212 VRB04KT P6SM FEW250
     FM011800 07006KT P6SM SCT060 SCT250
     FM020000 04003KT P6SM FEW060=



000
FTUS44 KOHX 011100 AAA
TAFCKV
TAF AMD
KCKV 011100Z 0111/0206 00000KT 2SM BR FEW250
      TEMPO 0111/0112 1/4SM FG
     FM011400 09003KT P6SM SCT250
     FM011800 14003KT P6SM SCT060 SCT250
     FM020000 05003KT P6SM FEW060=



000
FTUS44 KOHX 011100 AAA
TAFCKV
TAF AMD
KCKV 011100Z 0111/0206 00000KT 2SM BR FEW250
      TEMPO 0111/0112 1/4SM FG
     FM011400 09003KT P6SM SCT250
     FM011800 14003KT P6SM SCT060 SCT250
     FM020000 05003KT P6SM FEW060=



000
FTUS44 KOHX 010522 AAA
TAFCSV
TAF AMD
KCSV 010522Z 0105/0206 00000KT P6SM SKC
      TEMPO 0106/0108 5SM BR
     FM010800 00000KT 5SM BR SKC
      TEMPO 0108/0112 2SM BR
     FM011400 07003KT P6SM SCT250
     FM011800 03004KT P6SM SCT060 SCT250
     FM020200 00000KT 5SM BR FEW060=



000
FTUS44 KOHX 010522 AAA
TAFCSV
TAF AMD
KCSV 010522Z 0105/0206 00000KT P6SM SKC
      TEMPO 0106/0108 5SM BR
     FM010800 00000KT 5SM BR SKC
      TEMPO 0108/0112 2SM BR
     FM011400 07003KT P6SM SCT250
     FM011800 03004KT P6SM SCT060 SCT250
     FM020200 00000KT 5SM BR FEW060=



000
FTUS44 KOHX 010520
TAFCSV
TAF
KCSV 010520Z 0106/0206 00000KT P6SM SKC
      TEMPO 0108/0112 2SM BR
     FM011400 07003KT P6SM SCT250
     FM011800 03004KT P6SM SCT060 SCT250
     FM020200 00000KT 5SM BR FEW060=



000
FTUS44 KOHX 010520
TAFBNA
TAF
KBNA 010520Z 0106/0206 VRB04KT P6SM FEW250
      TEMPO 0109/0112 4SM BR
     FM011300 07003KT P6SM SCT250
     FM011800 06005KT P6SM SCT060 SCT250
     FM020000 04003KT P6SM FEW060=



000
FTUS44 KOHX 010520
TAFCKV
TAF
KCKV 010520Z 0106/0206 VRB04KT P6SM FEW250
      TEMPO 0108/0112 2SM BR
     FM011400 09003KT P6SM SCT250
     FM011800 14003KT P6SM SCT060 SCT250
     FM020000 05003KT P6SM FEW060=



000
FTUS44 KOHX 010520
TAFCSV
TAF
KCSV 010520Z 0106/0206 00000KT P6SM SKC
      TEMPO 0108/0112 2SM BR
     FM011400 07003KT P6SM SCT250
     FM011800 03004KT P6SM SCT060 SCT250
     FM020200 00000KT 5SM BR FEW060=



000
FTUS44 KOHX 010520
TAFCKV
TAF
KCKV 010520Z 0106/0206 VRB04KT P6SM FEW250
      TEMPO 0108/0112 2SM BR
     FM011400 09003KT P6SM SCT250
     FM011800 14003KT P6SM SCT060 SCT250
     FM020000 05003KT P6SM FEW060=



000
FTUS44 KOHX 010520
TAFBNA
TAF
KBNA 010520Z 0106/0206 VRB04KT P6SM FEW250
      TEMPO 0109/0112 4SM BR
     FM011300 07003KT P6SM SCT250
     FM011800 06005KT P6SM SCT060 SCT250
     FM020000 04003KT P6SM FEW060=



    US Dept of Commerce
    National Oceanic and Atmospheric Administration
    National Weather Service
    1325 East West Highway
    Silver Spring, MD 20910
    Page Author: NWS Internet Services Team
Disclaimer
Information Quality
Credits
Glossary
Privacy Policy
Freedom of Information Act (FOIA)
About Us
Career Opportunities